Time;durP1;ratioP1;P1;durP2;ratioP2;P2;SDS_P1;SDS_P2;PMS_P1;PMS_P2;Temp;Humidity;BMP_temperature;BMP_pressure;BME280_temperature;BME280_humidity;BME280_pressure;Samples;Min_cycle;Max_cycle;Signal;HPM_P1;HPM_P2
2022/03/27 00:01:46;;;;;;;18.60;10.37;;;;;;;10.26;47.48;153994.03;5066573;28;20439;-76
2022/03/27 00:04:21;;;;;;;15.53;9.80;;;;;;;10.22;47.77;153983.66;5042435;28;20896;-76
2022/03/27 00:06:59;;;;;;;15.30;9.80;;;;;;;10.17;48.44;153970.72;5047003;28;20486;-76
2022/03/27 00:09:34;;;;;;;20.13;11.70;;;;;;;10.24;48.53;153988.88;5063432;28;20458;-74
2022/03/27 00:12:10;;;;;;;22.40;10.70;;;;;;;10.25;48.83;153991.44;5044355;28;20459;-76
2022/03/27 00:14:46;;;;;;;17.67;10.00;;;;;;;10.32;48.53;154009.59;5061513;28;20545;-77
2022/03/27 00:17:22;;;;;;;14.10;9.27;;;;;;;10.31;48.60;154007.00;5034505;28;20456;-76
2022/03/27 00:19:57;;;;;;;16.97;10.70;;;;;;;10.28;48.25;153999.22;5032934;28;20547;-76
2022/03/27 00:22:36;;;;;;;17.17;10.17;;;;;;;10.30;48.67;154004.38;5062632;28;20451;-76
2022/03/27 00:25:12;;;;;;;14.83;9.53;;;;;;;10.21;48.44;153982.41;5065285;28;20491;-76
2022/03/27 00:27:47;;;;;;;20.23;10.77;;;;;;;10.26;48.21;153994.03;5049373;28;20439;-76
2022/03/27 00:30:24;;;;;;;15.13;11.13;;;;;;;10.29;48.65;154001.81;5056965;28;20532;-76
2022/03/27 00:33:00;;;;;;;18.90;11.30;;;;;;;10.29;48.35;154001.81;5053161;28;20454;-76
2022/03/27 00:35:36;;;;;;;15.87;10.50;;;;;;;10.30;48.06;154004.38;5035973;28;20963;-75
2022/03/27 00:38:13;;;;;;;20.40;10.20;;;;;;;10.24;47.82;153988.88;5033233;28;20457;-75
2022/03/27 00:40:50;;;;;;;15.60;9.10;;;;;;;10.19;48.29;153975.94;5039192;28;20460;-76
2022/03/27 00:43:27;;;;;;;18.70;10.50;;;;;;;10.07;48.48;153944.81;5033526;28;20439;-76
2022/03/27 00:46:03;;;;;;;25.83;11.20;;;;;;;10.09;48.74;153949.97;5049582;28;20451;-76
2022/03/27 00:48:38;;;;;;;17.33;11.53;;;;;;;10.26;48.72;153994.03;5017612;28;20836;-76
2022/03/27 00:51:14;;;;;;;23.83;13.07;;;;;;;10.32;48.61;154009.59;5049112;28;20487;-76
2022/03/27 00:53:51;;;;;;;18.33;11.10;;;;;;;10.34;48.85;154016.06;5063475;28;20501;-76
2022/03/27 00:56:27;;;;;;;19.00;10.90;;;;;;;10.35;48.66;154017.38;5036358;28;20465;-76
2022/03/27 00:59:02;;;;;;;13.87;10.10;;;;;;;10.41;48.58;154032.88;5036667;28;20471;-75
2022/03/27 01:01:39;;;;;;;18.17;10.57;;;;;;;10.39;49.00;154027.69;5066085;28;20507;-76
2022/03/27 01:04:15;;;;;;;20.23;12.03;;;;;;;10.32;48.80;154010.91;5039247;28;20462;-77
2022/03/27 01:06:51;;;;;;;16.60;9.87;;;;;;;10.33;48.72;154012.16;5042098;28;20505;-76
2022/03/27 01:09:37;;;;;;;16.33;10.40;;;;;;;10.21;48.63;153981.09;5020503;28;20446;-76
2022/03/27 01:12:15;;;;;;;13.90;10.67;;;;;;;10.19;49.12;153975.94;5018619;28;20829;-76
2022/03/27 01:14:51;;;;;;;18.50;10.20;;;;;;;10.15;49.02;153965.56;5062070;28;20486;-77
2022/03/27 01:17:28;;;;;;;20.70;12.33;;;;;;;10.19;49.35;153975.94;5034650;28;20487;-76
2022/03/27 01:20:05;;;;;;;17.37;10.87;;;;;;;10.16;49.47;153969.47;5036717;28;20479;-76
2022/03/27 01:22:41;;;;;;;13.90;10.03;;;;;;;10.20;49.51;153978.50;5043453;28;20533;-76
2022/03/27 01:25:16;;;;;;;17.80;11.53;;;;;;;10.19;49.28;153975.94;5034887;28;20874;-77
2022/03/27 01:27:52;;;;;;;17.43;10.90;;;;;;;10.15;49.69;153965.56;5048433;28;20450;-76
2022/03/27 01:30:27;;;;;;;19.40;10.43;;;;;;;10.09;49.57;153949.97;5041982;28;20471;-77
2022/03/27 01:33:05;;;;;;;16.30;10.30;;;;;;;10.11;49.63;153955.19;5048362;28;20661;-76
2022/03/27 01:35:41;;;;;;;18.50;11.30;;;;;;;10.07;49.68;153944.81;5063561;28;20447;-76
2022/03/27 01:38:17;;;;;;;19.87;11.97;;;;;;;9.97;50.05;153918.91;5024869;28;20501;-76
2022/03/27 01:40:53;;;;;;;18.80;11.00;;;;;;;9.87;49.73;153893.06;5037984;28;20782;-76
2022/03/27 01:43:28;;;;;;;16.23;10.57;;;;;;;9.74;49.97;153861.97;5032817;28;20455;-76
2022/03/27 01:46:04;;;;;;;19.63;11.23;;;;;;;9.68;50.15;153846.47;5048770;28;20545;-76
2022/03/27 01:48:40;;;;;;;16.30;10.53;;;;;;;9.69;50.29;153849.03;5047848;28;20456;-76
2022/03/27 01:51:17;;;;;;;16.10;10.33;;;;;;;9.80;50.25;153877.50;5060939;28;20501;-76
2022/03/27 01:53:52;;;;;;;15.93;10.93;;;;;;;9.84;50.13;153885.28;5044945;28;20446;-76
2022/03/27 01:56:28;;;;;;;16.70;10.60;;;;;;;9.80;50.45;153877.50;5033250;28;20580;-76
2022/03/27 01:59:05;;;;;;;15.97;10.90;;;;;;;9.75;50.64;153864.56;5045423;28;20474;-76
2022/03/27 02:01:41;;;;;;;17.23;10.30;;;;;;;9.75;50.67;153863.28;5035395;28;20442;-76
2022/03/27 02:04:17;;;;;;;18.07;11.73;;;;;;;9.69;50.39;153849.03;5050542;28;20442;-76
2022/03/27 02:06:54;;;;;;;14.33;10.67;;;;;;;9.64;50.59;153836.09;5030175;28;20492;-74
2022/03/27 02:09:29;;;;;;;23.50;13.23;;;;;;;9.59;50.79;153823.16;5035461;28;20443;-76
2022/03/27 02:12:05;;;;;;;18.33;10.60;;;;;;;9.53;50.62;153806.38;5050398;28;20466;-77
2022/03/27 02:14:41;;;;;;;17.77;11.80;;;;;;;9.34;51.25;153758.50;5038963;28;20502;-76
2022/03/27 02:17:16;;;;;;;19.23;10.40;;;;;;;9.36;51.58;153762.38;5047979;28;20447;-76
2022/03/27 02:19:52;;;;;;;18.27;11.07;;;;;;;9.35;51.43;153761.06;5044070;28;20984;-77
2022/03/27 02:22:29;;;;;;;18.07;11.30;;;;;;;9.37;51.43;153766.22;5057512;28;20471;-76
2022/03/27 02:25:06;;;;;;;14.60;11.43;;;;;;;9.30;51.26;153746.84;5034976;28;20455;-76
2022/03/27 02:27:41;;;;;;;20.00;11.10;;;;;;;9.12;51.72;153702.88;5034637;28;20500;-76
2022/03/27 02:30:19;;;;;;;20.27;11.37;;;;;;;8.96;51.95;153661.50;5044528;28;20544;-76
2022/03/27 02:32:56;;;;;;;17.60;10.90;;;;;;;8.88;52.17;153640.81;5031011;28;20471;-76
2022/03/27 02:35:31;;;;;;;16.40;10.83;;;;;;;8.86;52.44;153634.34;5033009;28;20849;-76
2022/03/27 02:38:08;;;;;;;17.20;9.70;;;;;;;8.88;52.19;153639.50;5029115;28;20455;-76
2022/03/27 02:40:45;;;;;;;17.50;9.93;;;;;;;8.81;52.38;153621.41;5030931;28;20459;-76
2022/03/27 02:43:21;;;;;;;17.10;10.60;;;;;;;8.86;52.67;153634.34;5049047;28;20454;-76
2022/03/27 02:45:56;;;;;;;18.47;11.33;;;;;;;8.82;52.54;153623.97;5050207;28;20462;-76
2022/03/27 02:48:32;;;;;;;20.70;12.63;;;;;;;8.81;52.28;153621.41;5039463;28;20594;-76
2022/03/27 02:51:08;;;;;;;17.50;11.00;;;;;;;8.76;52.47;153608.50;5058274;28;20529;-76
2022/03/27 02:53:45;;;;;;;16.10;9.80;;;;;;;9.02;52.13;153675.72;5032687;28;20455;-76
2022/03/27 02:56:20;;;;;;;18.17;12.10;;;;;;;9.08;52.01;153692.50;5041375;28;20463;-76
2022/03/27 02:58:56;;;;;;;19.87;11.50;;;;;;;9.05;51.77;153684.75;5043972;28;20513;-76
2022/03/27 03:01:32;;;;;;;18.27;11.37;;;;;;;8.96;51.64;153661.50;5016972;28;21090;-76
2022/03/27 03:04:07;;;;;;;17.20;11.07;;;;;;;8.83;51.81;153627.88;5043579;28;20471;-76
2022/03/27 03:06:43;;;;;;;16.23;10.87;;;;;;;8.63;52.28;153574.88;5032495;28;20451;-76
2022/03/27 03:09:20;;;;;;;16.00;10.10;;;;;;;8.54;52.69;153552.91;5055943;28;20500;-76
2022/03/27 03:11:56;;;;;;;18.23;10.83;;;;;;;8.46;53.10;153533.53;5035414;28;20479;-76
2022/03/27 03:14:33;;;;;;;19.50;11.00;;;;;;;8.46;53.17;153533.53;5057324;28;20443;-76
2022/03/27 03:17:09;;;;;;;17.90;10.83;;;;;;;8.56;53.10;153559.38;5019135;28;20452;-76
2022/03/27 03:19:45;;;;;;;21.93;10.90;;;;;;;8.55;53.11;153556.75;5037458;28;20806;-75
2022/03/27 03:22:21;;;;;;;19.80;10.40;;;;;;;8.67;53.31;153585.22;5044577;28;20442;-75
2022/03/27 03:24:58;;;;;;;17.27;10.27;;;;;;;8.79;53.48;153616.25;5060314;28;20509;-75
2022/03/27 03:27:33;;;;;;;16.63;10.70;;;;;;;9.06;52.54;153687.34;5048945;28;21020;-76
2022/03/27 03:30:10;;;;;;;19.10;10.53;;;;;;;9.16;52.50;153711.91;5035306;28;20466;-73
2022/03/27 03:32:45;;;;;;;16.67;10.80;;;;;;;9.26;52.11;153737.81;5042136;28;20494;-73
2022/03/27 03:35:21;;;;;;;17.77;9.93;;;;;;;9.21;52.34;153724.88;5037030;28;20459;-76
2022/03/27 03:37:58;;;;;;;12.90;10.67;;;;;;;9.18;52.41;153718.41;5031984;28;20567;-74
2022/03/27 03:40:35;;;;;;;13.30;9.70;;;;;;;9.22;52.27;153726.13;5041417;28;20486;-76
2022/03/27 03:43:11;;;;;;;14.90;9.57;;;;;;;9.19;52.51;153719.69;5053735;28;20431;-75
2022/03/27 03:45:47;;;;;;;14.50;8.83;;;;;;;9.08;52.98;153692.50;5050794;28;20456;-76
2022/03/27 03:48:22;;;;;;;14.13;9.97;;;;;;;9.05;53.09;153684.75;5052426;28;20451;-75
2022/03/27 03:50:58;;;;;;;16.50;9.67;;;;;;;8.99;53.14;153669.25;5033168;28;20813;-76
2022/03/27 03:53:34;;;;;;;16.20;10.40;;;;;;;8.77;53.64;153611.06;5039203;28;20457;-76
2022/03/27 03:56:12;;;;;;;17.87;10.90;;;;;;;8.63;53.84;153574.88;5019275;28;20455;-76
2022/03/27 03:58:47;;;;;;;14.77;10.17;;;;;;;8.50;53.96;153543.84;5050069;28;20990;-76
2022/03/27 04:01:23;;;;;;;13.90;10.20;;;;;;;8.33;54.50;153499.91;5034602;28;20453;-75
2022/03/27 04:03:59;;;;;;;15.30;9.50;;;;;;;8.27;54.64;153483.09;5047267;28;20822;-75
2022/03/27 04:06:35;;;;;;;13.90;9.20;;;;;;;8.11;55.02;153443.00;5029649;28;20446;-75
2022/03/27 04:09:10;;;;;;;18.60;9.10;;;;;;;8.09;55.06;153437.81;5038794;28;20485;-75
2022/03/27 04:11:48;;;;;;;14.50;10.70;;;;;;;8.05;55.49;153427.47;5064622;28;20486;-75
2022/03/27 04:14:23;;;;;;;17.73;10.63;;;;;;;8.00;55.49;153414.53;5048903;28;20479;-75
2022/03/27 04:17:00;;;;;;;15.73;9.60;;;;;;;7.99;55.54;153413.25;5049993;28;20949;-75
2022/03/27 04:19:36;;;;;;;17.33;10.23;;;;;;;8.15;56.14;153453.34;5040331;28;20447;-75
2022/03/27 04:22:11;;;;;;;19.80;10.30;;;;;;;8.44;55.20;153527.06;5044518;28;20443;-75
2022/03/27 04:24:47;;;;;;;15.33;10.27;;;;;;;8.46;55.10;153532.22;5049505;28;20477;-75
2022/03/27 04:27:25;;;;;;;19.30;10.70;;;;;;;8.45;54.94;153530.91;5034146;28;20795;-75
2022/03/27 04:30:00;;;;;;;14.77;10.13;;;;;;;8.36;54.80;153507.69;5050031;28;20462;-75
2022/03/27 04:32:36;;;;;;;15.43;10.37;;;;;;;8.28;54.96;153487.00;5042442;28;20471;-76
2022/03/27 04:35:11;;;;;;;14.53;9.70;;;;;;;8.13;55.31;153448.13;5049577;28;20509;-76
2022/03/27 04:37:47;;;;;;;19.20;10.97;;;;;;;8.00;55.58;153414.53;5035674;28;20454;-76
2022/03/27 04:40:23;;;;;;;12.50;9.83;;;;;;;7.89;56.16;153387.41;5049268;28;20455;-76
2022/03/27 04:43:00;;;;;;;16.23;11.00;;;;;;;7.83;56.29;153371.94;5033472;28;20459;-75
2022/03/27 04:45:35;;;;;;;16.97;10.10;;;;;;;7.81;56.04;153365.50;5048579;28;20458;-76
2022/03/27 04:48:11;;;;;;;15.00;10.57;;;;;;;7.80;56.20;153362.88;5049593;28;20535;-75
2022/03/27 04:50:46;;;;;;;19.00;10.70;;;;;;;7.78;56.54;153357.72;5032278;28;20553;-75
2022/03/27 04:53:22;;;;;;;17.97;10.77;;;;;;;7.76;56.97;153353.84;5039344;28;20566;-75
2022/03/27 04:55:57;;;;;;;17.87;10.83;;;;;;;7.67;56.95;153329.31;5036221;28;20473;-76
2022/03/27 04:58:35;;;;;;;17.13;10.10;;;;;;;7.62;56.99;153316.41;5051050;28;20480;-76
2022/03/27 05:01:11;;;;;;;21.17;11.80;;;;;;;7.52;57.05;153290.56;5052516;28;20467;-75
2022/03/27 05:03:47;;;;;;;18.10;10.30;;;;;;;7.49;57.38;153284.13;5063268;28;20451;-75
2022/03/27 05:06:23;;;;;;;22.90;10.20;;;;;;;7.43;57.21;153267.31;5057090;28;20451;-75
2022/03/27 05:08:58;;;;;;;17.97;9.87;;;;;;;7.39;57.58;153257.00;5041211;28;20782;-76
2022/03/27 05:11:34;;;;;;;18.23;10.53;;;;;;;7.45;58.81;153272.47;5046891;28;21107;-76
2022/03/27 05:14:11;;;;;;;19.70;11.10;;;;;;;7.66;58.21;153326.72;5055974;28;20550;-76
2022/03/27 05:16:47;;;;;;;18.73;11.07;;;;;;;7.69;58.53;153334.47;5049567;28;20557;-75
2022/03/27 05:19:22;;;;;;;17.93;10.63;;;;;;;7.69;58.96;153335.75;5035075;28;20527;-76
2022/03/27 05:21:58;;;;;;;13.03;9.53;;;;;;;7.68;58.57;153331.84;5029885;28;20546;-75
2022/03/27 05:24:33;;;;;;;16.73;11.20;;;;;;;7.64;58.75;153322.84;5050434;28;20562;-75
2022/03/27 05:27:09;;;;;;;19.47;11.90;;;;;;;7.52;58.98;153291.81;5041022;28;20489;-76
2022/03/27 05:29:46;;;;;;;13.97;9.77;;;;;;;7.50;59.34;153286.66;5040043;28;20435;-75
2022/03/27 05:32:22;;;;;;;18.20;11.67;;;;;;;7.42;59.30;153264.69;5048308;28;20549;-75
2022/03/27 05:34:57;;;;;;;18.60;9.67;;;;;;;7.31;59.21;153238.88;5035798;28;20479;-75
2022/03/27 05:37:35;;;;;;;19.10;11.67;;;;;;;7.22;59.13;153214.38;5020053;28;20454;-76
2022/03/27 05:40:13;;;;;;;19.63;12.33;;;;;;;7.31;59.57;153238.88;5065094;28;20787;-75
2022/03/27 05:42:50;;;;;;;17.83;11.03;;;;;;;7.58;59.30;153306.03;5048403;28;20443;-76
2022/03/27 05:45:27;;;;;;;17.23;10.60;;;;;;;7.68;58.90;153331.84;5050951;28;20443;-76
2022/03/27 05:48:04;;;;;;;18.03;11.30;;;;;;;7.73;59.23;153344.81;5067483;28;20447;-76
2022/03/27 05:50:39;;;;;;;16.57;10.77;;;;;;;7.67;59.31;153329.31;5050430;28;20453;-75
2022/03/27 05:53:15;;;;;;;21.10;11.60;;;;;;;7.60;58.39;153311.25;5067737;28;20993;-76
2022/03/27 05:55:51;;;;;;;21.30;12.30;;;;;;;7.50;59.14;153286.66;5066053;28;20762;-75
2022/03/27 05:58:27;;;;;;;19.67;11.77;;;;;;;7.50;59.59;153285.38;5044815;28;20463;-75
2022/03/27 06:01:05;;;;;;;17.07;10.77;;;;;;;7.50;59.50;153285.38;5039751;28;20450;-76
2022/03/27 06:03:41;;;;;;;17.20;10.70;;;;;;;7.56;58.89;153300.88;5035697;28;20526;-76
2022/03/27 06:06:16;;;;;;;14.83;10.50;;;;;;;7.70;59.77;153338.38;5034788;28;20840;-75
2022/03/27 06:08:57;;;;;;;16.07;10.37;;;;;;;7.84;59.53;153373.19;5047236;28;20450;-76
2022/03/27 06:11:33;;;;;;;17.10;10.90;;;;;;;8.02;59.37;153419.75;5066024;28;20442;-75
2022/03/27 06:14:09;;;;;;;16.87;11.60;;;;;;;8.27;58.69;153483.09;5050605;28;20435;-73
2022/03/27 06:16:46;;;;;;;17.07;10.60;;;;;;;8.54;58.09;153552.91;5033792;28;20463;-75
2022/03/27 06:19:21;;;;;;;18.43;10.97;;;;;;;8.83;57.98;153626.59;5040331;28;20471;-76
2022/03/27 06:21:57;;;;;;;17.70;11.73;;;;;;;9.14;58.60;153706.75;5048237;28;20432;-76
2022/03/27 06:24:33;;;;;;;18.87;11.63;;;;;;;9.40;57.34;153772.75;5030825;28;20455;-75
2022/03/27 06:27:08;;;;;;;19.13;12.13;;;;;;;9.73;57.40;153859.41;5036854;28;20462;-76
2022/03/27 06:29:44;;;;;;;17.70;10.90;;;;;;;10.07;56.63;153944.81;5044233;28;20446;-76
2022/03/27 06:32:21;;;;;;;13.30;10.10;;;;;;;10.43;53.99;154038.09;5015806;28;20826;-76
2022/03/27 06:34:58;;;;;;;18.20;11.57;;;;;;;10.62;52.34;154087.25;5044512;28;20796;-76
2022/03/27 06:37:34;;;;;;;17.33;12.00;;;;;;;10.80;52.80;154133.84;5034996;28;20450;-75
2022/03/27 06:40:12;;;;;;;16.17;12.30;;;;;;;11.08;52.88;154203.81;5042640;28;20434;-75
2022/03/27 06:42:48;;;;;;;16.70;11.80;;;;;;;11.37;52.26;154278.94;5048927;28;20423;-75
2022/03/27 06:45:26;;;;;;;17.33;12.07;;;;;;;11.52;50.83;154319.09;5043912;28;20458;-75
2022/03/27 06:48:03;;;;;;;12.13;9.00;;;;;;;11.77;50.65;154382.66;5037442;28;20438;-75
2022/03/27 06:50:39;;;;;;;16.73;10.07;;;;;;;11.96;49.49;154430.63;5047548;28;21119;-76
2022/03/27 06:53:20;;;;;;;17.17;10.50;;;;;;;12.20;49.27;154494.13;5033657;28;20853;-76
2022/03/27 06:55:55;;;;;;;15.07;11.30;;;;;;;12.40;49.07;154543.41;5036865;28;20439;-76
2022/03/27 06:58:31;;;;;;;14.80;10.50;;;;;;;12.45;48.03;154557.66;5039642;28;20578;-76
2022/03/27 07:04:01;;;;;;;19.73;11.10;;;;;;;12.83;47.79;154654.94;5029090;28;20784;-74
2022/03/27 07:06:42;;;;;;;15.83;10.93;;;;;;;13.09;47.94;154722.44;5030661;28;20910;-74
2022/03/27 07:09:18;;;;;;;16.20;11.10;;;;;;;13.28;47.31;154771.75;5031714;28;20450;-74
2022/03/27 07:11:54;;;;;;;19.53;11.10;;;;;;;13.47;46.55;154818.47;5030902;28;20450;-74
2022/03/27 07:14:29;;;;;;;20.70;12.20;;;;;;;13.62;46.69;154858.69;5066656;28;20434;-75
2022/03/27 07:17:05;;;;;;;16.00;10.90;;;;;;;13.73;45.52;154885.94;5051411;28;20442;-75
2022/03/27 07:19:42;;;;;;;12.67;10.30;;;;;;;14.06;45.03;154971.59;5046286;28;20455;-74
2022/03/27 07:22:18;;;;;;;14.00;10.67;;;;;;;14.16;44.99;154997.59;5053193;28;20435;-75
2022/03/27 07:25:03;;;;;;;15.17;10.57;;;;;;;14.47;43.87;155078.16;5050972;28;20430;-75
2022/03/27 07:27:40;;;;;;;14.47;11.03;;;;;;;14.50;43.80;155085.97;5035344;28;20485;-74
2022/03/27 07:30:16;;;;;;;14.87;10.57;;;;;;;14.41;44.27;155062.56;5023957;28;20545;-76
2022/03/27 07:32:53;;;;;;;13.43;10.70;;;;;;;14.10;44.45;154980.72;5038871;28;20475;-77
2022/03/27 07:35:31;;;;;;;16.80;10.80;;;;;;;14.49;44.57;155083.34;5033454;28;20432;-74
2022/03/27 07:38:07;;;;;;;16.37;11.20;;;;;;;14.69;44.62;155134.03;5036143;28;20439;-76
2022/03/27 07:40:43;;;;;;;15.60;11.30;;;;;;;14.68;44.79;155131.41;5050147;28;20435;-76
2022/03/27 07:43:18;;;;;;;16.43;12.10;;;;;;;14.97;44.90;155206.75;5040604;28;20781;-76
2022/03/27 07:45:54;;;;;;;22.83;12.47;;;;;;;14.87;44.40;155179.47;5053531;28;20438;-76
2022/03/27 07:48:30;;;;;;;18.33;12.93;;;;;;;14.97;44.39;155205.44;5053125;28;20446;-76
2022/03/27 07:51:08;;;;;;;20.63;14.80;;;;;;;15.12;44.02;155244.41;5033182;28;20439;-76
2022/03/27 07:53:44;;;;;;;20.57;14.53;;;;;;;15.12;44.26;155244.41;5046269;28;20467;-76
2022/03/27 07:56:20;;;;;;;18.30;13.83;;;;;;;15.31;44.42;155293.78;5050354;28;20435;-76
2022/03/27 07:58:56;;;;;;;18.50;13.90;;;;;;;15.25;43.67;155279.50;5044856;28;20871;-76
2022/03/27 08:01:31;;;;;;;19.60;15.23;;;;;;;15.07;43.50;155232.72;5035038;28;20479;-76
2022/03/27 08:04:07;;;;;;;21.57;15.53;;;;;;;15.32;44.00;155296.41;5052667;28;20781;-76
2022/03/27 08:06:46;;;;;;;20.83;15.90;;;;;;;15.45;43.34;155330.19;5052923;28;20446;-76
2022/03/27 08:09:22;;;;;;;20.90;15.93;;;;;;;16.18;42.60;155518.75;5049629;28;20455;-76
2022/03/27 08:11:57;;;;;;;20.93;14.57;;;;;;;16.26;40.88;155538.25;5044130;28;20444;-76
2022/03/27 08:14:33;;;;;;;17.00;13.70;;;;;;;16.45;40.80;155588.97;5033501;28;20439;-76
2022/03/27 08:17:08;;;;;;;23.70;15.00;;;;;;;16.24;41.39;155534.34;5052445;28;20793;-76
2022/03/27 08:19:44;;;;;;;22.23;14.30;;;;;;;15.98;41.57;155465.44;5049438;28;20432;-75
2022/03/27 08:22:24;;;;;;;15.83;13.50;;;;;;;15.55;42.37;155356.25;5029413;28;20459;-74
2022/03/27 08:24:59;;;;;;;26.10;15.63;;;;;;;15.73;42.73;155401.72;5052858;28;20427;-75
2022/03/27 08:27:34;;;;;;;17.50;13.57;;;;;;;15.83;41.81;155427.75;5047086;28;20483;-74
2022/03/27 08:30:11;;;;;;;24.50;15.37;;;;;;;15.96;42.47;155461.56;5039573;28;20459;-74
2022/03/27 08:32:48;;;;;;;19.00;13.57;;;;;;;15.50;41.99;155343.25;5063386;28;20466;-74
2022/03/27 08:35:24;;;;;;;37.60;20.23;;;;;;;15.41;44.68;155319.78;5051569;28;20454;-77
2022/03/27 08:38:01;;;;;;;18.23;14.83;;;;;;;15.54;42.73;155353.63;5048588;28;20452;-77
2022/03/27 08:40:38;;;;;;;25.67;18.17;;;;;;;15.34;44.49;155301.59;5050101;28;20530;-77
2022/03/27 08:43:16;;;;;;;22.00;15.93;;;;;;;15.30;43.63;155289.91;5050356;28;20933;-77
2022/03/27 08:45:51;;;;;;;23.97;19.50;;;;;;;15.24;44.98;155275.63;5035194;28;20492;-77
2022/03/27 08:48:30;;;;;;;16.07;12.60;;;;;;;15.89;43.30;155442.00;5047728;28;20450;-77
2022/03/27 08:51:10;;;;;;;16.83;13.07;;;;;;;16.30;42.56;155548.66;5050824;28;20451;-77
2022/03/27 08:53:55;;;;;;;16.47;14.43;;;;;;;16.06;43.14;155486.25;5021375;28;20467;-77
2022/03/27 08:56:32;;;;;;;16.93;12.27;;;;;;;16.07;41.83;155488.88;5030701;28;20934;-77
2022/03/27 08:59:09;;;;;;;19.73;13.80;;;;;;;16.04;42.56;155482.38;5034818;28;20468;-76
2022/03/27 09:01:45;;;;;;;16.83;12.87;;;;;;;15.50;42.85;155343.25;5060648;28;20553;-77
2022/03/27 09:04:21;;;;;;;16.97;12.63;;;;;;;15.48;42.60;155338.06;5051726;28;20431;-77
2022/03/27 09:06:56;;;;;;;20.70;13.17;;;;;;;15.46;43.46;155331.56;5048556;28;20878;-77
2022/03/27 09:09:35;;;;;;;14.60;12.40;;;;;;;15.33;42.93;155297.72;5041082;28;20442;-76
2022/03/27 09:12:11;;;;;;;15.70;11.90;;;;;;;15.24;42.98;155275.63;5068767;28;20454;-77
2022/03/27 09:14:46;;;;;;;21.40;11.53;;;;;;;15.05;43.31;155226.22;5068924;28;20565;-76
2022/03/27 09:17:22;;;;;;;17.13;12.07;;;;;;;14.98;43.69;155208.06;5065679;28;20458;-76
2022/03/27 09:19:58;;;;;;;14.50;12.40;;;;;;;15.08;45.15;155234.03;5051444;28;20446;-76
2022/03/27 09:22:34;;;;;;;15.53;11.97;;;;;;;15.03;45.29;155221.03;5052052;28;20434;-76
2022/03/27 09:25:11;;;;;;;16.40;12.67;;;;;;;15.16;44.06;155256.13;5045890;28;20435;-76
2022/03/27 09:27:47;;;;;;;20.73;12.50;;;;;;;15.28;44.80;155286.00;5031370;28;20456;-76
2022/03/27 09:30:22;;;;;;;19.40;12.73;;;;;;;15.39;43.07;155314.59;5032227;28;20436;-76
2022/03/27 09:32:58;;;;;;;12.90;11.07;;;;;;;15.80;43.71;155419.94;5031879;28;20459;-76
2022/03/27 09:35:36;;;;;;;14.77;12.10;;;;;;;15.90;43.46;155445.94;5032390;28;20448;-76
2022/03/27 09:38:19;;;;;;;13.60;11.63;;;;;;;15.70;43.14;155395.22;5031557;28;20444;-76
2022/03/27 09:40:55;;;;;;;14.27;10.93;;;;;;;15.64;44.78;155379.66;5032182;28;20432;-76
2022/03/27 09:43:31;;;;;;;14.43;12.87;;;;;;;15.54;44.55;155353.63;5051548;28;20442;-76
2022/03/27 09:46:06;;;;;;;23.90;12.57;;;;;;;15.43;44.54;155325.00;5036347;28;20525;-76
2022/03/27 09:48:56;;;;;;;16.90;11.97;;;;;;;15.58;43.35;155362.75;5034957;28;20451;-76
2022/03/27 09:51:32;;;;;;;16.20;11.97;;;;;;;15.60;43.52;155369.22;5036489;28;20447;-76
2022/03/27 09:54:07;;;;;;;16.70;11.97;;;;;;;15.27;43.79;155283.44;5051233;28;21028;-76
2022/03/27 09:56:45;;;;;;;21.27;11.73;;;;;;;15.12;44.46;155245.72;5032701;28;20446;-76
2022/03/27 09:59:29;;;;;;;17.60;12.00;;;;;;;15.19;44.39;155262.63;5042561;28;20446;-76
2022/03/27 10:02:22;;;;;;;12.70;10.10;;;;;;;14.99;44.78;155211.94;5051087;28;20918;-76
2022/03/27 10:04:59;;;;;;;16.00;12.17;;;;;;;15.07;44.87;155231.41;5051249;28;20838;-76
2022/03/27 10:07:40;;;;;;;18.03;11.50;;;;;;;15.09;44.96;155236.66;5049779;28;20474;-76
2022/03/27 10:10:18;;;;;;;15.67;11.40;;;;;;;15.24;45.98;155275.63;5045995;28;20455;-76
2022/03/27 10:12:56;;;;;;;18.30;12.33;;;;;;;15.09;44.99;155236.66;5030695;28;20439;-76
2022/03/27 10:15:32;;;;;;;17.80;11.07;;;;;;;14.89;45.26;155184.66;5050887;28;20450;-76
2022/03/27 10:18:11;;;;;;;16.40;11.30;;;;;;;15.21;45.56;155267.81;5015419;28;20439;-76
2022/03/27 10:20:49;;;;;;;15.67;10.60;;;;;;;15.41;45.11;155318.53;5030183;28;20444;-76
2022/03/27 10:23:27;;;;;;;18.93;11.10;;;;;;;15.51;44.00;155344.56;5030700;28;20448;-76
2022/03/27 10:26:05;;;;;;;17.93;13.10;;;;;;;15.27;44.09;155284.69;5038591;28;20434;-75
2022/03/27 10:28:42;;;;;;;15.20;12.20;;;;;;;15.15;44.40;155253.53;5054587;28;20462;-75
2022/03/27 10:31:19;;;;;;;15.90;11.33;;;;;;;15.31;45.17;155292.50;5054748;28;20442;-75
2022/03/27 10:33:58;;;;;;;17.10;10.73;;;;;;;15.22;45.33;155270.44;5048460;28;20545;-75
2022/03/27 10:36:42;;;;;;;16.50;12.13;;;;;;;15.28;44.74;155286.00;5040922;28;20527;-75
2022/03/27 10:39:25;;;;;;;14.57;11.67;;;;;;;15.04;44.91;155224.94;5036040;28;20423;-75
2022/03/27 10:42:07;;;;;;;13.70;10.17;;;;;;;15.16;45.71;155254.81;5051478;28;20440;-75
2022/03/27 10:44:46;;;;;;;16.23;11.53;;;;;;;15.35;44.63;155304.22;5039159;28;20470;-75
2022/03/27 10:47:23;;;;;;;15.13;11.53;;;;;;;15.47;44.16;155335.44;5028207;28;20450;-75
2022/03/27 10:50:21;;;;;;;12.67;10.23;;;;;;;15.41;44.17;155318.53;5037486;28;20521;-75
2022/03/27 10:53:09;;;;;;;18.23;11.97;;;;;;;15.27;44.39;155282.13;5048995;28;20452;-75
2022/03/27 10:55:46;;;;;;;16.73;12.20;;;;;;;15.38;45.00;155310.72;5049128;28;20442;-76
2022/03/27 10:58:34;;;;;;;19.03;12.33;;;;;;;15.50;43.86;155343.25;5048971;28;20581;-75
2022/03/27 11:01:38;;;;;;;22.83;11.70;;;;;;;15.64;43.44;155379.66;5044600;28;20475;-76
2022/03/27 11:04:14;;;;;;;15.50;11.73;;;;;;;15.49;43.07;155340.63;5069578;28;20430;-77
2022/03/27 11:06:51;;;;;;;15.43;11.20;;;;;;;15.65;43.35;155380.91;5050269;28;20454;-76
2022/03/27 11:09:34;;;;;;;16.40;11.40;;;;;;;15.66;43.13;155384.84;5053334;28;20419;-76
2022/03/27 11:12:29;;;;;;;18.83;12.63;;;;;;;15.64;42.95;155378.34;5053258;28;20774;-76
2022/03/27 11:15:06;;;;;;;16.20;10.80;;;;;;;15.63;44.40;155377.03;5047446;28;20466;-75
2022/03/27 11:17:45;;;;;;;14.40;10.43;;;;;;;15.59;44.05;155366.66;5037548;28;20442;-75
2022/03/27 11:20:48;;;;;;;15.33;10.90;;;;;;;15.71;43.87;155396.53;5048507;28;20446;-74
2022/03/27 11:23:32;;;;;;;19.60;11.20;;;;;;;15.72;43.70;155399.16;5030674;28;20473;-74
2022/03/27 11:26:33;;;;;;;18.90;13.30;;;;;;;15.79;42.83;155418.63;5032927;28;20472;-74
2022/03/27 11:29:20;;;;;;;17.80;11.70;;;;;;;15.80;42.39;155419.94;5031545;28;20550;-75
2022/03/27 11:32:07;;;;;;;20.30;12.40;;;;;;;15.92;42.54;155451.13;5024309;28;20439;-75
2022/03/27 11:35:15;;;;;;;14.37;10.83;;;;;;;16.00;41.89;155471.94;5051473;28;20945;-75
2022/03/27 11:38:21;;;;;;;17.80;11.10;;;;;;;16.05;41.32;155484.94;5047006;28;20478;-75
2022/03/27 11:40:57;;;;;;;19.27;11.80;;;;;;;16.04;40.76;155481.06;5052646;28;20838;-75
2022/03/27 11:43:35;;;;;;;12.00;10.30;;;;;;;15.97;40.67;155464.13;5038030;28;20439;-75
2022/03/27 11:46:22;;;;;;;14.23;11.00;;;;;;;16.00;40.45;155470.63;5047143;28;20443;-75
2022/03/27 11:48:59;;;;;;;13.87;9.87;;;;;;;16.11;40.69;155499.25;5052468;28;21048;-75
2022/03/27 11:51:36;;;;;;;19.17;10.17;;;;;;;16.25;39.63;155535.66;5051534;28;20439;-75
2022/03/27 11:54:19;;;;;;;15.00;10.50;;;;;;;16.25;39.81;155535.66;5025990;28;20459;-74
2022/03/27 11:56:57;;;;;;;13.80;9.67;;;;;;;16.35;38.78;155562.97;5033545;28;20817;-75
2022/03/27 11:59:46;;;;;;;15.70;10.00;;;;;;;16.39;38.55;155573.34;5031325;28;20438;-75
2022/03/27 12:02:22;;;;;;;30.17;11.03;;;;;;;16.40;38.35;155575.97;5042658;28;21137;-74
2022/03/27 12:05:01;;;;;;;14.33;9.80;;;;;;;16.29;38.55;155547.34;5048564;28;20969;-75